Vagar, Faroe Islands

10:22 PM WET on February 12, 2016 (GMT +0000)
Vagar | | Change Station
CLOSE
Current Station
Airport
Location: Vagar,
Elevation: 279 ft
Nearby Weather Stations

Elev 279 ft 62.07 °N, 7.28 °W | Updated 2 minutes ago

Mostly Cloudy
Mostly Cloudy
37 °F
Feels Like 29 °F
N
13
Wind Variable Wind from East

Today
High -- | Low -- °F
--% Chance of Precip.
Yesterday
High -- | Low -- °F
Precip. -- in
Pressure 29.74 in
Visibility 6.2 miles
Clouds Mostly Cloudy 4500 ft
Windchill 29 °F
Dew Point 28 °F
Humidity 70%
Rainfall 0.00 in
Snow Depth Not available.
8:25 AM 5:01 PM
Waxing Crescent, 24% visible
METAR EKVG 122220Z AUTO 09011KT 9999NDV BKN045/// 03/M02 Q1007
Pressure 29.74 in
Visibility 6.2 miles
Clouds Mostly Cloudy 4500 ft
Windchill 29 °F
Dew Point 28 °F
Humidity 70%
Rainfall 0.00 in
Snow Depth Not available.
8:25 AM 5:01 PM
Waxing Crescent, 24% visible
METAR EKVG 122220Z AUTO 09011KT 9999NDV BKN045/// 03/M02 Q1007

10-Day Weather Forecast

No radar image for this location.
×

Almanac

Astronomy

Feb. 12, 2016 Rise Set
Actual Time
Civil Twilight
Nautical Twilight
Astronomical Twilight
Moon
Length of Visible Light
Length of Day
Tomorrow will be .
, % of the Moon is Illuminated

Today's Extremes

Country Highs Country Lows

Community

WunderPhotos

Upload Photos

1,892,421 photos uploaded!

WunderBlog® & News

Nearby

Air Quality

  Air Quality AQ Index Pollutant
Not available.

Snow Depth

Station Depth Elevation

Earthquake Activity

City Distance Mag. Time & Date
Minimum magnitude displayed is 2.5.

Coastal Water Temperatures

Place Temperature

Stations

Nearby Weather Stations

Station Location Temp. Windchill Dew Point Humidity Wind Precip. Elev Updated Type